sensor_id;sensor_type;location;lat;lon;timestamp;pressure;altitude;pressure_sealevel;temperature;humidity
69570;BME280;56781;42.292;23.146;2023-06-14T00:01:03;95282.84;;;16.03;100.00
69570;BME280;56781;42.292;23.146;2023-06-14T00:03:32;95265.63;;;15.95;100.00
69570;BME280;56781;42.292;23.146;2023-06-14T00:06:00;95271.94;;;16.00;100.00
69570;BME280;56781;42.292;23.146;2023-06-14T00:08:27;95253.03;;;15.87;100.00
69570;BME280;56781;42.292;23.146;2023-06-14T00:10:54;95272.63;;;15.97;100.00
69570;BME280;56781;42.292;23.146;2023-06-14T00:13:21;95278.78;;;15.97;100.00
69570;BME280;56781;42.292;23.146;2023-06-14T00:15:48;95263.16;;;15.90;100.00
69570;BME280;56781;42.292;23.146;2023-06-14T00:18:16;95263.16;;;15.90;100.00
69570;BME280;56781;42.292;23.146;2023-06-14T00:20:43;95268.09;;;16.01;100.00
69570;BME280;56781;42.292;23.146;2023-06-14T00:23:10;95248.56;;;15.91;100.00
69570;BME280;56781;42.292;23.146;2023-06-14T00:25:38;95273.50;;;16.01;100.00
69570;BME280;56781;42.292;23.146;2023-06-14T00:28:05;95260.00;;;16.01;100.00
69570;BME280;56781;42.292;23.146;2023-06-14T00:30:32;95259.06;;;16.09;100.00
69570;BME280;56781;42.292;23.146;2023-06-14T00:32:59;95244.69;;;16.05;100.00
69570;BME280;56781;42.292;23.146;2023-06-14T00:35:27;95232.91;;;15.97;100.00
69570;BME280;56781;42.292;23.146;2023-06-14T00:37:54;95229.88;;;15.86;100.00
69570;BME280;56781;42.292;23.146;2023-06-14T00:40:22;95239.44;;;15.84;100.00
69570;BME280;56781;42.292;23.146;2023-06-14T00:42:49;95244.53;;;15.85;100.00
69570;BME280;56781;42.292;23.146;2023-06-14T00:45:16;95230.03;;;15.78;100.00
69570;BME280;56781;42.292;23.146;2023-06-14T00:47:44;95239.13;;;15.85;100.00
69570;BME280;56781;42.292;23.146;2023-06-14T00:50:13;95243.84;;;15.76;100.00
69570;BME280;56781;42.292;23.146;2023-06-14T00:52:40;95237.22;;;15.73;100.00
69570;BME280;56781;42.292;23.146;2023-06-14T00:55:07;95226.97;;;15.67;100.00
69570;BME280;56781;42.292;23.146;2023-06-14T00:57:35;95221.91;;;15.53;100.00
69570;BME280;56781;42.292;23.146;2023-06-14T01:00:04;95208.56;;;15.44;100.00
69570;BME280;56781;42.292;23.146;2023-06-14T01:02:37;95226.63;;;15.56;100.00
69570;BME280;56781;42.292;23.146;2023-06-14T01:05:06;95217.53;;;15.48;100.00
69570;BME280;56781;42.292;23.146;2023-06-14T01:10:12;95209.78;;;15.35;100.00
69570;BME280;56781;42.292;23.146;2023-06-14T01:12:57;95215.50;;;15.33;100.00
69570;BME280;56781;42.292;23.146;2023-06-14T01:15:27;95232.13;;;15.35;100.00
69570;BME280;56781;42.292;23.146;2023-06-14T01:17:57;95203.13;;;15.20;100.00
69570;BME280;56781;42.292;23.146;2023-06-14T01:20:31;95225.50;;;15.33;100.00
69570;BME280;56781;42.292;23.146;2023-06-14T01:22:59;95199.22;;;15.17;100.00
69570;BME280;56781;42.292;23.146;2023-06-14T01:25:26;95200.22;;;15.25;100.00
69570;BME280;56781;42.292;23.146;2023-06-14T01:28:04;95196.84;;;15.16;100.00
69570;BME280;56781;42.292;23.146;2023-06-14T01:30:39;95200.00;;;15.18;100.00
69570;BME280;56781;42.292;23.146;2023-06-14T01:33:17;95219.56;;;15.27;100.00
69570;BME280;56781;42.292;23.146;2023-06-14T01:35:49;95193.81;;;15.05;100.00
69570;BME280;56781;42.292;23.146;2023-06-14T01:38:23;95204.72;;;15.08;100.00
69570;BME280;56781;42.292;23.146;2023-06-14T01:40:53;95201.59;;;15.06;100.00
69570;BME280;56781;42.292;23.146;2023-06-14T01:43:22;95178.66;;;15.00;100.00
69570;BME280;56781;42.292;23.146;2023-06-14T01:45:51;95224.41;;;15.34;100.00
69570;BME280;56781;42.292;23.146;2023-06-14T01:48:19;95205.84;;;15.20;100.00
69570;BME280;56781;42.292;23.146;2023-06-14T01:50:48;95223.59;;;15.33;100.00
69570;BME280;56781;42.292;23.146;2023-06-14T01:53:16;95232.59;;;15.37;100.00
69570;BME280;56781;42.292;23.146;2023-06-14T01:55:43;95235.53;;;15.44;100.00
69570;BME280;56781;42.292;23.146;2023-06-14T01:58:11;95205.94;;;15.36;100.00
69570;BME280;56781;42.292;23.146;2023-06-14T02:00:38;95199.53;;;15.28;100.00
69570;BME280;56781;42.292;23.146;2023-06-14T02:03:05;95238.44;;;15.39;100.00
69570;BME280;56781;42.292;23.146;2023-06-14T02:05:32;95206.97;;;15.19;100.00
69570;BME280;56781;42.292;23.146;2023-06-14T02:08:01;95234.28;;;15.29;100.00
69570;BME280;56781;42.292;23.146;2023-06-14T02:10:29;95223.38;;;15.26;100.00
69570;BME280;56781;42.292;23.146;2023-06-14T02:12:56;95226.19;;;15.17;100.00
69570;BME280;56781;42.292;23.146;2023-06-14T02:15:23;95230.78;;;15.17;100.00
69570;BME280;56781;42.292;23.146;2023-06-14T02:17:50;95256.53;;;15.26;100.00
69570;BME280;56781;42.292;23.146;2023-06-14T02:20:18;95246.97;;;15.17;100.00
69570;BME280;56781;42.292;23.146;2023-06-14T02:22:45;95247.75;;;15.05;100.00
69570;BME280;56781;42.292;23.146;2023-06-14T02:25:12;95243.81;;;15.02;100.00
69570;BME280;56781;42.292;23.146;2023-06-14T02:27:40;95250.91;;;15.07;100.00
69570;BME280;56781;42.292;23.146;2023-06-14T02:30:07;95230.53;;;14.97;100.00
69570;BME280;56781;42.292;23.146;2023-06-14T02:32:34;95258.31;;;15.10;100.00
69570;BME280;56781;42.292;23.146;2023-06-14T02:35:03;95247.28;;;15.03;100.00
69570;BME280;56781;42.292;23.146;2023-06-14T02:37:30;95232.66;;;14.92;100.00
69570;BME280;56781;42.292;23.146;2023-06-14T02:39:58;95259.09;;;15.11;100.00
69570;BME280;56781;42.292;23.146;2023-06-14T02:42:26;95242.78;;;14.95;100.00
69570;BME280;56781;42.292;23.146;2023-06-14T02:44:53;95246.72;;;14.97;100.00
69570;BME280;56781;42.292;23.146;2023-06-14T02:47:20;95269.19;;;15.01;100.00
69570;BME280;56781;42.292;23.146;2023-06-14T02:49:47;95254.91;;;14.89;100.00
69570;BME280;56781;42.292;23.146;2023-06-14T02:52:15;95251.75;;;14.87;100.00
69570;BME280;56781;42.292;23.146;2023-06-14T02:54:42;95260.06;;;14.94;100.00
69570;BME280;56781;42.292;23.146;2023-06-14T02:57:09;95252.09;;;14.85;100.00
69570;BME280;56781;42.292;23.146;2023-06-14T02:59:37;95268.75;;;14.99;100.00
69570;BME280;56781;42.292;23.146;2023-06-14T03:02:05;95260.97;;;14.98;100.00
69570;BME280;56781;42.292;23.146;2023-06-14T03:04:32;95270.97;;;14.97;100.00
69570;BME280;56781;42.292;23.146;2023-06-14T03:07:05;95268.38;;;14.89;100.00
69570;BME280;56781;42.292;23.146;2023-06-14T03:09:39;95261.94;;;14.81;100.00
69570;BME280;56781;42.292;23.146;2023-06-14T03:12:07;95270.97;;;14.85;100.00
69570;BME280;56781;42.292;23.146;2023-06-14T03:14:35;95289.16;;;15.00;100.00
69570;BME280;56781;42.292;23.146;2023-06-14T03:17:02;95294.56;;;15.00;100.00
69570;BME280;56781;42.292;23.146;2023-06-14T03:19:31;95275.00;;;14.91;100.00
69570;BME280;56781;42.292;23.146;2023-06-14T03:21:59;95267.81;;;14.95;100.00
69570;BME280;56781;42.292;23.146;2023-06-14T03:24:26;95275.56;;;14.97;100.00
69570;BME280;56781;42.292;23.146;2023-06-14T03:26:56;95285.47;;;15.05;100.00
69570;BME280;56781;42.292;23.146;2023-06-14T03:29:23;95267.28;;;15.02;100.00
69570;BME280;56781;42.292;23.146;2023-06-14T03:32:01;95283.94;;;15.16;100.00
69570;BME280;56781;42.292;23.146;2023-06-14T03:34:28;95275.28;;;15.11;100.00
69570;BME280;56781;42.292;23.146;2023-06-14T03:36:56;95289.88;;;15.22;100.00
69570;BME280;56781;42.292;23.146;2023-06-14T03:39:23;95280.25;;;15.21;100.00
69570;BME280;56781;42.292;23.146;2023-06-14T03:41:50;95273.16;;;15.28;100.00
69570;BME280;56781;42.292;23.146;2023-06-14T03:44:18;95283.84;;;15.37;100.00
69570;BME280;56781;42.292;23.146;2023-06-14T03:46:46;95287.78;;;15.40;100.00
69570;BME280;56781;42.292;23.146;2023-06-14T03:49:13;95304.44;;;15.54;100.00
69570;BME280;56781;42.292;23.146;2023-06-14T03:51:40;95258.22;;;15.43;100.00
69570;BME280;56781;42.292;23.146;2023-06-14T03:54:08;95266.09;;;15.61;100.00
69570;BME280;56781;42.292;23.146;2023-06-14T03:56:38;95280.28;;;15.70;100.00
69570;BME280;56781;42.292;23.146;2023-06-14T03:59:05;95280.63;;;15.81;100.00
69570;BME280;56781;42.292;23.146;2023-06-14T04:01:32;95299.16;;;15.94;100.00
69570;BME280;56781;42.292;23.146;2023-06-14T04:04:00;95289.72;;;15.88;100.00
69570;BME280;56781;42.292;23.146;2023-06-14T04:06:28;95278.69;;;15.93;100.00
69570;BME280;56781;42.292;23.146;2023-06-14T04:08:59;95274.88;;;15.94;100.00
69570;BME280;56781;42.292;23.146;2023-06-14T04:11:31;95280.59;;;16.05;100.00
69570;BME280;56781;42.292;23.146;2023-06-14T04:13:58;95276.41;;;16.08;100.00
69570;BME280;56781;42.292;23.146;2023-06-14T04:16:26;95283.06;;;16.10;100.00
69570;BME280;56781;42.292;23.146;2023-06-14T04:18:54;95283.06;;;16.10;100.00
69570;BME280;56781;42.292;23.146;2023-06-14T04:21:22;95294.63;;;16.23;100.00
69570;BME280;56781;42.292;23.146;2023-06-14T04:23:50;95270.97;;;16.20;100.00
69570;BME280;56781;42.292;23.146;2023-06-14T04:26:20;95289.66;;;16.25;100.00
69570;BME280;56781;42.292;23.146;2023-06-14T04:28:50;95283.13;;;16.26;100.00
69570;BME280;56781;42.292;23.146;2023-06-14T04:31:17;95290.75;;;16.36;100.00
69570;BME280;56781;42.292;23.146;2023-06-14T04:33:45;95283.47;;;16.53;100.00
69570;BME280;56781;42.292;23.146;2023-06-14T04:36:13;95293.72;;;16.88;100.00
69570;BME280;56781;42.292;23.146;2023-06-14T04:38:44;95287.38;;;16.96;100.00
69570;BME280;56781;42.292;23.146;2023-06-14T04:41:13;95300.44;;;17.38;100.00
69570;BME280;56781;42.292;23.146;2023-06-14T04:43:40;95308.22;;;17.71;100.00
69570;BME280;56781;42.292;23.146;2023-06-14T04:46:07;95287.06;;;17.61;100.00
69570;BME280;56781;42.292;23.146;2023-06-14T04:48:39;95309.88;;;17.76;100.00
69570;BME280;56781;42.292;23.146;2023-06-14T04:51:08;95267.84;;;17.66;100.00
69570;BME280;56781;42.292;23.146;2023-06-14T04:53:36;95315.28;;;17.76;100.00
69570;BME280;56781;42.292;23.146;2023-06-14T04:56:04;95304.09;;;17.93;100.00
69570;BME280;56781;42.292;23.146;2023-06-14T04:58:31;95320.00;;;18.10;100.00
69570;BME280;56781;42.292;23.146;2023-06-14T05:00:59;95305.84;;;18.01;100.00
69570;BME280;56781;42.292;23.146;2023-06-14T05:03:28;95301.28;;;18.05;100.00
69570;BME280;56781;42.292;23.146;2023-06-14T05:05:57;95316.06;;;18.08;100.00
69570;BME280;56781;42.292;23.146;2023-06-14T05:08:24;95308.44;;;18.13;100.00
69570;BME280;56781;42.292;23.146;2023-06-14T05:10:52;95308.09;;;18.34;100.00
69570;BME280;56781;42.292;23.146;2023-06-14T05:13:20;95313.19;;;18.36;100.00
69570;BME280;56781;42.292;23.146;2023-06-14T05:15:48;95331.63;;;18.66;100.00
69570;BME280;56781;42.292;23.146;2023-06-14T05:18:16;95326.44;;;18.96;100.00
69570;BME280;56781;42.292;23.146;2023-06-14T05:20:43;95333.84;;;19.64;100.00
69570;BME280;56781;42.292;23.146;2023-06-14T05:23:10;95325.13;;;19.75;100.00
69570;BME280;56781;42.292;23.146;2023-06-14T05:25:46;95344.19;;;19.78;100.00
69570;BME280;56781;42.292;23.146;2023-06-14T05:28:13;95330.44;;;19.67;100.00
69570;BME280;56781;42.292;23.146;2023-06-14T05:30:40;95324.41;;;19.12;100.00
69570;BME280;56781;42.292;23.146;2023-06-14T05:33:07;95344.69;;;18.99;100.00
69570;BME280;56781;42.292;23.146;2023-06-14T05:35:35;95353.13;;;18.74;100.00
69570;BME280;56781;42.292;23.146;2023-06-14T05:38:02;95361.28;;;18.58;100.00
69570;BME280;56781;42.292;23.146;2023-06-14T05:40:29;95357.13;;;18.45;100.00
69570;BME280;56781;42.292;23.146;2023-06-14T05:42:56;95327.22;;;18.22;100.00
69570;BME280;56781;42.292;23.146;2023-06-14T05:45:23;95353.28;;;18.46;100.00
69570;BME280;56781;42.292;23.146;2023-06-14T05:47:51;95340.50;;;18.27;100.00
69570;BME280;56781;42.292;23.146;2023-06-14T05:50:18;95340.50;;;18.11;100.00
69570;BME280;56781;42.292;23.146;2023-06-14T05:52:46;95350.88;;;18.25;100.00
69570;BME280;56781;42.292;23.146;2023-06-14T05:55:13;95336.38;;;18.17;100.00
69570;BME280;56781;42.292;23.146;2023-06-14T05:57:41;95351.13;;;18.36;100.00
69570;BME280;56781;42.292;23.146;2023-06-14T06:00:09;95345.25;;;18.34;100.00
69570;BME280;56781;42.292;23.146;2023-06-14T06:02:43;95363.41;;;18.49;100.00
69570;BME280;56781;42.292;23.146;2023-06-14T06:05:13;95342.28;;;18.39;100.00
69570;BME280;56781;42.292;23.146;2023-06-14T06:07:42;95346.84;;;18.35;100.00
69570;BME280;56781;42.292;23.146;2023-06-14T06:10:12;95360.44;;;18.54;100.00
69570;BME280;56781;42.292;23.146;2023-06-14T06:12:41;95357.63;;;18.86;100.00
69570;BME280;56781;42.292;23.146;2023-06-14T06:15:09;95346.84;;;18.90;100.00
69570;BME280;56781;42.292;23.146;2023-06-14T06:17:39;95376.41;;;19.76;100.00
69570;BME280;56781;42.292;23.146;2023-06-14T06:20:23;95329.44;;;20.86;95.73
69570;BME280;56781;42.292;23.146;2023-06-14T06:22:56;95364.81;;;21.94;92.32
69570;BME280;56781;42.292;23.146;2023-06-14T06:25:23;95360.09;;;22.39;85.58
69570;BME280;56781;42.292;23.146;2023-06-14T06:27:54;95355.78;;;22.38;87.80
69570;BME280;56781;42.292;23.146;2023-06-14T06:30:21;95363.63;;;22.47;85.91
69570;BME280;56781;42.292;23.146;2023-06-14T06:32:48;95364.19;;;22.15;84.83
69570;BME280;56781;42.292;23.146;2023-06-14T06:35:16;95369.94;;;21.58;89.78
69570;BME280;56781;42.292;23.146;2023-06-14T06:37:43;95366.94;;;20.99;92.25
69570;BME280;56781;42.292;23.146;2023-06-14T06:40:11;95341.72;;;22.29;90.13
69570;BME280;56781;42.292;23.146;2023-06-14T06:42:39;95342.25;;;23.43;82.92
69570;BME280;56781;42.292;23.146;2023-06-14T06:45:06;95362.19;;;24.69;79.16
69570;BME280;56781;42.292;23.146;2023-06-14T06:47:33;95376.63;;;24.81;76.73
69570;BME280;56781;42.292;23.146;2023-06-14T06:50:01;95341.91;;;25.48;74.01
69570;BME280;56781;42.292;23.146;2023-06-14T06:52:28;95348.72;;;25.88;69.55
69570;BME280;56781;42.292;23.146;2023-06-14T06:54:55;95360.81;;;26.43;71.74
69570;BME280;56781;42.292;23.146;2023-06-14T06:57:23;95341.97;;;25.37;71.91
69570;BME280;56781;42.292;23.146;2023-06-14T06:59:50;95357.09;;;24.75;76.58
69570;BME280;56781;42.292;23.146;2023-06-14T07:02:18;95359.84;;;25.59;73.45
69570;BME280;56781;42.292;23.146;2023-06-14T07:04:45;95336.56;;;25.30;72.79
69570;BME280;56781;42.292;23.146;2023-06-14T07:07:12;95354.78;;;25.58;71.42
69570;BME280;56781;42.292;23.146;2023-06-14T07:09:39;95356.38;;;25.55;72.10
69570;BME280;56781;42.292;23.146;2023-06-14T07:12:09;95333.16;;;25.71;69.10
69570;BME280;56781;42.292;23.146;2023-06-14T07:14:37;95349.75;;;25.49;69.04
69570;BME280;56781;42.292;23.146;2023-06-14T07:17:04;95341.63;;;25.94;70.21
69570;BME280;56781;42.292;23.146;2023-06-14T07:19:31;95336.91;;;25.95;69.66
69570;BME280;56781;42.292;23.146;2023-06-14T07:21:59;95312.44;;;26.94;67.12
69570;BME280;56781;42.292;23.146;2023-06-14T07:24:27;95342.53;;;27.66;65.04
69570;BME280;56781;42.292;23.146;2023-06-14T07:26:55;95343.25;;;27.70;64.73
69570;BME280;56781;42.292;23.146;2023-06-14T07:29:23;95335.47;;;27.04;65.37
69570;BME280;56781;42.292;23.146;2023-06-14T07:31:50;95306.34;;;27.40;63.51
69570;BME280;56781;42.292;23.146;2023-06-14T07:34:17;95340.25;;;27.61;62.39
69570;BME280;56781;42.292;23.146;2023-06-14T07:36:44;95334.63;;;27.41;61.71
69570;BME280;56781;42.292;23.146;2023-06-14T07:39:11;95334.47;;;26.87;63.12
69570;BME280;56781;42.292;23.146;2023-06-14T07:41:38;95333.09;;;26.71;66.65
69570;BME280;56781;42.292;23.146;2023-06-14T07:44:06;95312.94;;;26.47;64.71
69570;BME280;56781;42.292;23.146;2023-06-14T07:46:33;95325.22;;;27.38;63.03
69570;BME280;56781;42.292;23.146;2023-06-14T07:49:01;95338.19;;;27.38;62.56
69570;BME280;56781;42.292;23.146;2023-06-14T07:51:28;95347.22;;;27.96;61.45
69570;BME280;56781;42.292;23.146;2023-06-14T07:53:55;95327.94;;;26.77;63.33
69570;BME280;56781;42.292;23.146;2023-06-14T07:56:23;95338.41;;;26.06;63.21
69570;BME280;56781;42.292;23.146;2023-06-14T07:58:50;95348.13;;;26.60;66.71
69570;BME280;56781;42.292;23.146;2023-06-14T08:01:17;95354.00;;;25.57;67.02
69570;BME280;56781;42.292;23.146;2023-06-14T08:03:44;95368.03;;;24.79;69.99
69570;BME280;56781;42.292;23.146;2023-06-14T08:06:12;95376.31;;;24.00;75.06
69570;BME280;56781;42.292;23.146;2023-06-14T08:08:39;95372.00;;;22.72;79.60
69570;BME280;56781;42.292;23.146;2023-06-14T08:11:06;95371.38;;;22.34;80.47
69570;BME280;56781;42.292;23.146;2023-06-14T08:13:33;95393.53;;;22.29;84.41
69570;BME280;56781;42.292;23.146;2023-06-14T08:16:00;95373.59;;;22.21;82.43
69570;BME280;56781;42.292;23.146;2023-06-14T08:18:28;95393.09;;;23.98;77.30
69570;BME280;56781;42.292;23.146;2023-06-14T08:20:57;95349.53;;;25.85;75.43
69570;BME280;56781;42.292;23.146;2023-06-14T08:23:24;95353.78;;;26.38;66.68
69570;BME280;56781;42.292;23.146;2023-06-14T08:25:51;95371.94;;;27.08;66.64
69570;BME280;56781;42.292;23.146;2023-06-14T08:28:18;95349.97;;;25.76;67.81
69570;BME280;56781;42.292;23.146;2023-06-14T08:30:45;95383.69;;;24.82;71.07
69570;BME280;56781;42.292;23.146;2023-06-14T08:33:12;95371.81;;;25.13;69.14
69570;BME280;56781;42.292;23.146;2023-06-14T08:35:43;95371.25;;;26.14;68.37
69570;BME280;56781;42.292;23.146;2023-06-14T08:38:11;95362.03;;;26.38;66.20
69570;BME280;56781;42.292;23.146;2023-06-14T08:40:40;95334.06;;;26.54;65.24
69570;BME280;56781;42.292;23.146;2023-06-14T08:43:09;95370.09;;;26.60;65.77
69570;BME280;56781;42.292;23.146;2023-06-14T08:45:36;95342.22;;;26.61;61.11
69570;BME280;56781;42.292;23.146;2023-06-14T08:48:04;95355.84;;;26.72;62.01
69570;BME280;56781;42.292;23.146;2023-06-14T08:50:32;95366.41;;;26.32;62.47
69570;BME280;56781;42.292;23.146;2023-06-14T08:53:02;95347.56;;;26.34;66.02
69570;BME280;56781;42.292;23.146;2023-06-14T08:55:31;95338.81;;;26.05;61.42
69570;BME280;56781;42.292;23.146;2023-06-14T08:58:03;95336.31;;;26.21;64.62
69570;BME280;56781;42.292;23.146;2023-06-14T09:00:32;95322.47;;;26.32;62.59
69570;BME280;56781;42.292;23.146;2023-06-14T09:03:00;95340.34;;;26.55;64.58
69570;BME280;56781;42.292;23.146;2023-06-14T09:05:28;95330.47;;;26.16;62.95
69570;BME280;56781;42.292;23.146;2023-06-14T09:07:55;95316.31;;;26.21;62.50
69570;BME280;56781;42.292;23.146;2023-06-14T09:10:32;95329.56;;;25.84;65.43
69570;BME280;56781;42.292;23.146;2023-06-14T09:13:05;95328.66;;;26.43;69.28
69570;BME280;56781;42.292;23.146;2023-06-14T09:15:33;95324.50;;;26.28;63.64
69570;BME280;56781;42.292;23.146;2023-06-14T09:18:01;95320.53;;;25.84;61.93
69570;BME280;56781;42.292;23.146;2023-06-14T09:20:30;95314.06;;;26.12;61.46
69570;BME280;56781;42.292;23.146;2023-06-14T09:22:58;95311.97;;;26.23;60.78
69570;BME280;56781;42.292;23.146;2023-06-14T09:25:25;95302.31;;;26.12;62.07
69570;BME280;56781;42.292;23.146;2023-06-14T09:28:08;95296.06;;;26.83;64.92
69570;BME280;56781;42.292;23.146;2023-06-14T09:30:39;95307.63;;;26.71;60.16
69570;BME280;56781;42.292;23.146;2023-06-14T09:33:06;95301.75;;;27.00;63.49
69570;BME280;56781;42.292;23.146;2023-06-14T09:35:34;95308.09;;;26.21;59.47
69570;BME280;56781;42.292;23.146;2023-06-14T09:38:01;95302.31;;;26.49;64.43
69570;BME280;56781;42.292;23.146;2023-06-14T09:40:33;95303.78;;;26.20;60.69
69570;BME280;56781;42.292;23.146;2023-06-14T09:43:01;95293.56;;;26.24;63.52
69570;BME280;56781;42.292;23.146;2023-06-14T09:45:31;95287.44;;;26.05;62.47
69570;BME280;56781;42.292;23.146;2023-06-14T09:47:58;95293.38;;;26.42;64.28
69570;BME280;56781;42.292;23.146;2023-06-14T09:50:28;95271.69;;;25.68;61.00
69570;BME280;56781;42.292;23.146;2023-06-14T09:53:01;95286.34;;;25.99;65.24
69570;BME280;56781;42.292;23.146;2023-06-14T09:55:30;95285.84;;;26.12;63.06
69570;BME280;56781;42.292;23.146;2023-06-14T09:57:59;95280.22;;;26.26;60.59
69570;BME280;56781;42.292;23.146;2023-06-14T10:00:28;95282.41;;;26.38;60.07
69570;BME280;56781;42.292;23.146;2023-06-14T10:03:03;95257.00;;;26.34;62.26
69570;BME280;56781;42.292;23.146;2023-06-14T10:05:34;95270.75;;;26.68;62.65
69570;BME280;56781;42.292;23.146;2023-06-14T10:08:13;95272.75;;;26.64;62.54
69570;BME280;56781;42.292;23.146;2023-06-14T10:10:42;95232.69;;;25.95;59.46
69570;BME280;56781;42.292;23.146;2023-06-14T10:13:10;95257.22;;;26.13;58.70
69570;BME280;56781;42.292;23.146;2023-06-14T10:15:51;95257.91;;;25.79;61.28
69570;BME280;56781;42.292;23.146;2023-06-14T10:18:41;95252.34;;;25.90;61.11
69570;BME280;56781;42.292;23.146;2023-06-14T10:21:21;95258.91;;;25.47;62.83
69570;BME280;56781;42.292;23.146;2023-06-14T10:23:51;95263.75;;;25.84;62.67
69570;BME280;56781;42.292;23.146;2023-06-14T10:26:23;95222.25;;;25.79;62.53
69570;BME280;56781;42.292;23.146;2023-06-14T10:29:07;95254.53;;;26.05;61.62
69570;BME280;56781;42.292;23.146;2023-06-14T10:31:44;95237.19;;;26.16;61.09
69570;BME280;56781;42.292;23.146;2023-06-14T10:34:20;95239.84;;;25.85;61.13
69570;BME280;56781;42.292;23.146;2023-06-14T10:37:16;95234.88;;;26.11;63.83
69570;BME280;56781;42.292;23.146;2023-06-14T10:39:44;95214.41;;;26.19;59.92
69570;BME280;56781;42.292;23.146;2023-06-14T10:42:15;95244.84;;;26.69;60.68
69570;BME280;56781;42.292;23.146;2023-06-14T10:49:55;95232.44;;;26.58;59.86
69570;BME280;56781;42.292;23.146;2023-06-14T10:52:27;95216.63;;;26.31;57.03
69570;BME280;56781;42.292;23.146;2023-06-14T10:55:22;95212.38;;;25.89;57.48
69570;BME280;56781;42.292;23.146;2023-06-14T10:57:51;95212.72;;;25.46;60.44
69570;BME280;56781;42.292;23.146;2023-06-14T11:00:22;95233.94;;;25.34;59.15
69570;BME280;56781;42.292;23.146;2023-06-14T11:05:54;95227.88;;;25.02;63.65
69570;BME280;56781;42.292;23.146;2023-06-14T11:08:47;95239.53;;;25.20;66.13
69570;BME280;56781;42.292;23.146;2023-06-14T11:11:18;95216.88;;;25.05;63.17
69570;BME280;56781;42.292;23.146;2023-06-14T11:13:49;95216.31;;;25.39;61.39
69570;BME280;56781;42.292;23.146;2023-06-14T11:16:17;95218.69;;;25.82;65.19
69570;BME280;56781;42.292;23.146;2023-06-14T11:18:46;95222.84;;;26.35;61.39
69570;BME280;56781;42.292;23.146;2023-06-14T11:21:17;95225.25;;;26.67;63.50
69570;BME280;56781;42.292;23.146;2023-06-14T11:23:52;95213.59;;;26.22;60.15
69570;BME280;56781;42.292;23.146;2023-06-14T11:26:30;95201.81;;;26.90;60.57
69570;BME280;56781;42.292;23.146;2023-06-14T11:29:00;95211.84;;;26.39;59.19
69570;BME280;56781;42.292;23.146;2023-06-14T11:31:28;95211.22;;;26.24;65.06
69570;BME280;56781;42.292;23.146;2023-06-14T11:33:57;95203.97;;;26.06;58.92
69570;BME280;56781;42.292;23.146;2023-06-14T11:36:33;95180.97;;;26.31;60.86
69570;BME280;56781;42.292;23.146;2023-06-14T11:39:03;95197.72;;;27.02;57.93
69570;BME280;56781;42.292;23.146;2023-06-14T11:41:36;95170.44;;;27.42;53.73
69570;BME280;56781;42.292;23.146;2023-06-14T11:44:04;95185.69;;;27.70;55.98
69570;BME280;56781;42.292;23.146;2023-06-14T11:46:33;95190.69;;;27.75;58.74
69570;BME280;56781;42.292;23.146;2023-06-14T11:49:01;95183.59;;;27.54;57.77
69570;BME280;56781;42.292;23.146;2023-06-14T11:51:31;95191.25;;;26.58;53.14
69570;BME280;56781;42.292;23.146;2023-06-14T11:53:59;95160.91;;;26.34;54.60
69570;BME280;56781;42.292;23.146;2023-06-14T11:56:27;95162.72;;;26.48;60.18
69570;BME280;56781;42.292;23.146;2023-06-14T11:58:54;95165.84;;;26.16;60.59
69570;BME280;56781;42.292;23.146;2023-06-14T12:01:23;95176.00;;;26.19;66.34
69570;BME280;56781;42.292;23.146;2023-06-14T12:03:53;95158.88;;;26.07;64.67
69570;BME280;56781;42.292;23.146;2023-06-14T12:06:28;95178.84;;;26.42;60.38
69570;BME280;56781;42.292;23.146;2023-06-14T12:08:56;95166.16;;;26.56;61.62
69570;BME280;56781;42.292;23.146;2023-06-14T12:11:24;95166.69;;;26.43;58.15
69570;BME280;56781;42.292;23.146;2023-06-14T12:13:56;95168.03;;;26.93;55.44
69570;BME280;56781;42.292;23.146;2023-06-14T12:16:30;95151.94;;;27.18;57.25
69570;BME280;56781;42.292;23.146;2023-06-14T12:19:16;95164.03;;;27.48;58.76
69570;BME280;56781;42.292;23.146;2023-06-14T12:21:46;95153.94;;;27.42;54.76
69570;BME280;56781;42.292;23.146;2023-06-14T12:24:16;95162.50;;;27.47;55.99
69570;BME280;56781;42.292;23.146;2023-06-14T12:26:43;95136.06;;;27.30;55.16
69570;BME280;56781;42.292;23.146;2023-06-14T12:29:10;95138.19;;;27.89;55.24
69570;BME280;56781;42.292;23.146;2023-06-14T12:31:39;95167.91;;;27.98;51.85
69570;BME280;56781;42.292;23.146;2023-06-14T12:34:07;95163.69;;;28.13;51.82
69570;BME280;56781;42.292;23.146;2023-06-14T12:36:34;95152.13;;;28.02;49.96
69570;BME280;56781;42.292;23.146;2023-06-14T12:39:07;95159.38;;;27.69;53.16
69570;BME280;56781;42.292;23.146;2023-06-14T12:41:35;95158.47;;;27.99;54.23
69570;BME280;56781;42.292;23.146;2023-06-14T12:44:03;95165.34;;;27.63;52.07
69570;BME280;56781;42.292;23.146;2023-06-14T12:46:31;95157.94;;;27.84;53.91
69570;BME280;56781;42.292;23.146;2023-06-14T12:48:59;95155.97;;;27.61;54.39
69570;BME280;56781;42.292;23.146;2023-06-14T12:51:26;95147.25;;;27.15;52.97
69570;BME280;56781;42.292;23.146;2023-06-14T12:53:53;95148.69;;;27.51;56.90
69570;BME280;56781;42.292;23.146;2023-06-14T12:56:21;95144.97;;;27.37;59.60
69570;BME280;56781;42.292;23.146;2023-06-14T12:58:50;95130.63;;;27.26;63.38
69570;BME280;56781;42.292;23.146;2023-06-14T13:01:18;95145.38;;;26.85;64.61
69570;BME280;56781;42.292;23.146;2023-06-14T13:03:46;95142.31;;;26.80;63.81
69570;BME280;56781;42.292;23.146;2023-06-14T13:06:14;95125.47;;;26.47;66.20